sensor_id;sensor_type;location;lat;lon;timestamp;pressure;altitude;pressure_sealevel;temperature;humidity
30516;BME280;17297;54.022;10.760;2023-01-29T00:01:02;102523.59;;;6.32;67.54
30516;BME280;17297;54.022;10.760;2023-01-29T00:03:27;102523.50;;;6.34;67.55
30516;BME280;17297;54.022;10.760;2023-01-29T00:05:53;102520.81;;;6.34;67.71
30516;BME280;17297;54.022;10.760;2023-01-29T00:08:18;102511.81;;;6.35;67.70
30516;BME280;17297;54.022;10.760;2023-01-29T00:10:44;102511.72;;;6.36;67.75
30516;BME280;17297;54.022;10.760;2023-01-29T00:13:09;102507.22;;;6.37;67.77
30516;BME280;17297;54.022;10.760;2023-01-29T00:15:34;102505.38;;;6.37;67.67
30516;BME280;17297;54.022;10.760;2023-01-29T00:18:00;102507.06;;;6.38;67.67
30516;BME280;17297;54.022;10.760;2023-01-29T00:20:25;102510.63;;;6.39;67.69
30516;BME280;17297;54.022;10.760;2023-01-29T00:22:51;102495.44;;;6.39;67.84
30516;BME280;17297;54.022;10.760;2023-01-29T00:25:16;102489.94;;;6.41;67.76
30516;BME280;17297;54.022;10.760;2023-01-29T00:27:41;102494.44;;;6.40;67.65
30516;BME280;17297;54.022;10.760;2023-01-29T00:30:09;102505.03;;;6.42;67.78
30516;BME280;17297;54.022;10.760;2023-01-29T00:32:40;102501.47;;;6.41;67.76
30516;BME280;17297;54.022;10.760;2023-01-29T00:35:07;102493.47;;;6.41;67.85
30516;BME280;17297;54.022;10.760;2023-01-29T00:37:33;102493.47;;;6.41;68.04
30516;BME280;17297;54.022;10.760;2023-01-29T00:39:59;102496.03;;;6.43;68.00
30516;BME280;17297;54.022;10.760;2023-01-29T00:42:24;102485.34;;;6.43;67.90
30516;BME280;17297;54.022;10.760;2023-01-29T00:45:10;102482.66;;;6.43;67.87
30516;BME280;17297;54.022;10.760;2023-01-29T00:47:35;102483.50;;;6.43;68.16
30516;BME280;17297;54.022;10.760;2023-01-29T00:50:04;102491.53;;;6.43;68.06
30516;BME280;17297;54.022;10.760;2023-01-29T00:52:30;102494.19;;;6.43;68.15
30516;BME280;17297;54.022;10.760;2023-01-29T00:54:57;102493.22;;;6.44;67.96
30516;BME280;17297;54.022;10.760;2023-01-29T00:57:24;102492.25;;;6.45;68.18
30516;BME280;17297;54.022;10.760;2023-01-29T00:59:52;102496.63;;;6.46;68.37
30516;BME280;17297;54.022;10.760;2023-01-29T01:02:18;102487.75;;;6.46;68.28
30516;BME280;17297;54.022;10.760;2023-01-29T01:05:03;102485.09;;;6.46;68.02
30516;BME280;17297;54.022;10.760;2023-01-29T01:07:30;102475.22;;;6.46;68.06
30516;BME280;17297;54.022;10.760;2023-01-29T01:09:56;102469.88;;;6.46;68.01
30516;BME280;17297;54.022;10.760;2023-01-29T01:12:40;102478.75;;;6.47;68.23
30516;BME280;17297;54.022;10.760;2023-01-29T01:15:05;102478.75;;;6.47;68.14
30516;BME280;17297;54.022;10.760;2023-01-29T01:17:31;102485.81;;;6.48;68.14
30516;BME280;17297;54.022;10.760;2023-01-29T01:19:56;102486.66;;;6.48;68.33
30516;BME280;17297;54.022;10.760;2023-01-29T01:22:21;102482.16;;;6.49;68.22
30516;BME280;17297;54.022;10.760;2023-01-29T01:24:47;102472.31;;;6.50;68.39
30516;BME280;17297;54.022;10.760;2023-01-29T01:27:12;102473.16;;;6.50;68.45
30516;BME280;17297;54.022;10.760;2023-01-29T01:29:38;102475.72;;;6.52;68.29
30516;BME280;17297;54.022;10.760;2023-01-29T01:32:04;102481.91;;;6.52;68.39
30516;BME280;17297;54.022;10.760;2023-01-29T01:34:30;102471.22;;;6.52;68.31
30516;BME280;17297;54.022;10.760;2023-01-29T01:36:55;102464.88;;;6.53;68.53
30516;BME280;17297;54.022;10.760;2023-01-29T01:39:22;102472.91;;;6.53;68.37
30516;BME280;17297;54.022;10.760;2023-01-29T01:41:48;102472.81;;;6.55;68.51
30516;BME280;17297;54.022;10.760;2023-01-29T01:47:20;102465.63;;;6.55;68.59
30516;BME280;17297;54.022;10.760;2023-01-29T01:49:47;102468.31;;;6.55;68.57
30516;BME280;17297;54.022;10.760;2023-01-29T01:52:13;102468.16;;;6.57;68.50
30516;BME280;17297;54.022;10.760;2023-01-29T01:54:41;102460.97;;;6.57;68.50
30516;BME280;17297;54.022;10.760;2023-01-29T01:57:15;102457.22;;;6.60;68.57
30516;BME280;17297;54.022;10.760;2023-01-29T01:59:46;102443.00;;;6.59;68.58
30516;BME280;17297;54.022;10.760;2023-01-29T02:02:13;102431.31;;;6.60;68.77
30516;BME280;17297;54.022;10.760;2023-01-29T02:04:58;102429.53;;;6.61;68.44
30516;BME280;17297;54.022;10.760;2023-01-29T02:07:45;102426.84;;;6.61;68.75
30516;BME280;17297;54.022;10.760;2023-01-29T02:10:35;102429.53;;;6.61;68.84
30516;BME280;17297;54.022;10.760;2023-01-29T02:13:04;102426.69;;;6.62;68.83
30516;BME280;17297;54.022;10.760;2023-01-29T02:15:30;102434.63;;;6.64;68.83
30516;BME280;17297;54.022;10.760;2023-01-29T02:17:55;102439.97;;;6.64;68.59
30516;BME280;17297;54.022;10.760;2023-01-29T02:20:26;102437.28;;;6.64;68.87
30516;BME280;17297;54.022;10.760;2023-01-29T02:25:46;102434.38;;;6.67;69.01
30516;BME280;17297;54.022;10.760;2023-01-29T02:36:36;102422.69;;;6.68;68.89
30516;BME280;17297;54.022;10.760;2023-01-29T02:39:19;102414.66;;;6.68;68.71
30516;BME280;17297;54.022;10.760;2023-01-29T02:42:05;102401.13;;;6.69;68.96
30516;BME280;17297;54.022;10.760;2023-01-29T02:44:54;102395.78;;;6.69;68.98
30516;BME280;17297;54.022;10.760;2023-01-29T02:47:33;102396.78;;;6.68;69.00
30516;BME280;17297;54.022;10.760;2023-01-29T02:50:16;102392.28;;;6.69;68.90
30516;BME280;17297;54.022;10.760;2023-01-29T02:53:07;102391.44;;;6.68;68.83
30516;BME280;17297;54.022;10.760;2023-01-29T02:55:44;102385.97;;;6.70;68.92
30516;BME280;17297;54.022;10.760;2023-01-29T02:58:24;102381.47;;;6.70;69.15
30516;BME280;17297;54.022;10.760;2023-01-29T03:00:55;102376.13;;;6.70;68.93
30516;BME280;17297;54.022;10.760;2023-01-29T03:03:31;102363.59;;;6.71;69.19
30516;BME280;17297;54.022;10.760;2023-01-29T03:06:03;102353.63;;;6.73;68.98
30516;BME280;17297;54.022;10.760;2023-01-29T03:08:46;102360.78;;;6.72;69.02
30516;BME280;17297;54.022;10.760;2023-01-29T03:11:15;102352.63;;;6.74;69.03
30516;BME280;17297;54.022;10.760;2023-01-29T03:13:58;102344.72;;;6.72;69.25
30516;BME280;17297;54.022;10.760;2023-01-29T03:16:32;102353.38;;;6.76;68.82
30516;BME280;17297;54.022;10.760;2023-01-29T03:19:15;102352.63;;;6.74;68.94
30516;BME280;17297;54.022;10.760;2023-01-29T03:21:47;102340.09;;;6.75;69.19
30516;BME280;17297;54.022;10.760;2023-01-29T03:24:34;102333.06;;;6.74;69.29
30516;BME280;17297;54.022;10.760;2023-01-29T03:27:28;102337.31;;;6.76;69.16
30516;BME280;17297;54.022;10.760;2023-01-29T03:30:15;102332.81;;;6.77;69.26
30516;BME280;17297;54.022;10.760;2023-01-29T03:33:19;102332.81;;;6.77;69.24
30516;BME280;17297;54.022;10.760;2023-01-29T03:35:55;102335.34;;;6.78;69.14
30516;BME280;17297;54.022;10.760;2023-01-29T03:38:25;102338.75;;;6.80;69.12
30516;BME280;17297;54.022;10.760;2023-01-29T03:41:04;102344.09;;;6.80;69.38
30516;BME280;17297;54.022;10.760;2023-01-29T03:43:48;102341.28;;;6.82;69.17
30516;BME280;17297;54.022;10.760;2023-01-29T03:46:35;102345.66;;;6.83;69.34
30516;BME280;17297;54.022;10.760;2023-01-29T03:49:25;102352.69;;;6.84;69.19
30516;BME280;17297;54.022;10.760;2023-01-29T03:52:08;102350.88;;;6.84;69.45
30516;BME280;17297;54.022;10.760;2023-01-29T03:59:56;102354.28;;;6.86;69.33
30516;BME280;17297;54.022;10.760;2023-01-29T04:05:37;102351.34;;;6.89;69.52
30516;BME280;17297;54.022;10.760;2023-01-29T04:08:14;102348.66;;;6.89;69.30
30516;BME280;17297;54.022;10.760;2023-01-29T04:10:42;102342.34;;;6.90;69.60
30516;BME280;17297;54.022;10.760;2023-01-29T04:13:11;102345.84;;;6.91;69.64
30516;BME280;17297;54.022;10.760;2023-01-29T04:15:51;102350.25;;;6.92;69.66
30516;BME280;17297;54.022;10.760;2023-01-29T04:18:26;102350.09;;;6.93;69.44
30516;BME280;17297;54.022;10.760;2023-01-29T04:21:04;102355.34;;;6.95;69.61
30516;BME280;17297;54.022;10.760;2023-01-29T04:23:31;102356.19;;;6.96;69.62
30516;BME280;17297;54.022;10.760;2023-01-29T04:26:18;102353.50;;;6.96;69.78
30516;BME280;17297;54.022;10.760;2023-01-29T04:28:58;102356.88;;;6.98;69.68
30516;BME280;17297;54.022;10.760;2023-01-29T04:31:33;102352.41;;;6.98;69.55
30516;BME280;17297;54.022;10.760;2023-01-29T04:34:14;102345.22;;;6.99;69.72
30516;BME280;17297;54.022;10.760;2023-01-29T04:39:19;102348.84;;;6.98;69.61
30516;BME280;17297;54.022;10.760;2023-01-29T04:49:59;102341.69;;;6.98;69.76
30516;BME280;17297;54.022;10.760;2023-01-29T04:52:38;102331.84;;;6.99;69.68
30516;BME280;17297;54.022;10.760;2023-01-29T04:55:16;102331.84;;;6.99;69.95
30516;BME280;17297;54.022;10.760;2023-01-29T05:00:20;102331.56;;;7.02;69.89
30516;BME280;17297;54.022;10.760;2023-01-29T05:02:48;102327.06;;;7.02;69.86
30516;BME280;17297;54.022;10.760;2023-01-29T05:05:15;102329.75;;;7.02;69.73
30516;BME280;17297;54.022;10.760;2023-01-29T05:07:43;102325.13;;;7.04;69.77
30516;BME280;17297;54.022;10.760;2023-01-29T05:10:09;102324.25;;;7.04;69.89
30516;BME280;17297;54.022;10.760;2023-01-29T05:12:37;102326.81;;;7.05;69.98
30516;BME280;17297;54.022;10.760;2023-01-29T05:15:08;102319.75;;;7.04;69.80
30516;BME280;17297;54.022;10.760;2023-01-29T05:17:33;102315.25;;;7.05;69.78
30516;BME280;17297;54.022;10.760;2023-01-29T05:19:59;102314.25;;;7.06;69.73
30516;BME280;17297;54.022;10.760;2023-01-29T05:22:25;102319.63;;;7.06;69.77
30516;BME280;17297;54.022;10.760;2023-01-29T05:24:51;102304.41;;;7.06;69.85
30516;BME280;17297;54.022;10.760;2023-01-29T05:27:35;102312.44;;;7.06;69.86
30516;BME280;17297;54.022;10.760;2023-01-29T05:30:20;102306.25;;;7.06;70.00
30516;BME280;17297;54.022;10.760;2023-01-29T05:32:45;102311.47;;;7.07;69.93
30516;BME280;17297;54.022;10.760;2023-01-29T05:35:10;102302.44;;;7.08;69.87
30516;BME280;17297;54.022;10.760;2023-01-29T05:37:36;102293.59;;;7.08;70.02
30516;BME280;17297;54.022;10.760;2023-01-29T05:40:01;102304.97;;;7.10;69.89
30516;BME280;17297;54.022;10.760;2023-01-29T05:42:26;102310.22;;;7.11;70.10
30516;BME280;17297;54.022;10.760;2023-01-29T05:44:52;102307.53;;;7.11;69.90
30516;BME280;17297;54.022;10.760;2023-01-29T05:47:18;102298.66;;;7.11;69.95
30516;BME280;17297;54.022;10.760;2023-01-29T05:49:44;102295.00;;;7.12;69.94
30516;BME280;17297;54.022;10.760;2023-01-29T05:52:09;102294.00;;;7.13;70.12
30516;BME280;17297;54.022;10.760;2023-01-29T05:54:34;102292.22;;;7.13;70.02
30516;BME280;17297;54.022;10.760;2023-01-29T05:57:00;102286.97;;;7.12;70.12
30516;BME280;17297;54.022;10.760;2023-01-29T05:59:25;102277.97;;;7.13;70.09
30516;BME280;17297;54.022;10.760;2023-01-29T06:01:50;102277.97;;;7.13;70.12
30516;BME280;17297;54.022;10.760;2023-01-29T06:04:16;102280.63;;;7.13;70.00
30516;BME280;17297;54.022;10.760;2023-01-29T06:06:41;102276.28;;;7.12;70.01
30516;BME280;17297;54.022;10.760;2023-01-29T06:09:09;102275.28;;;7.13;70.14
30516;BME280;17297;54.022;10.760;2023-01-29T06:11:35;102274.44;;;7.12;70.23
30516;BME280;17297;54.022;10.760;2023-01-29T06:14:00;102270.91;;;7.12;70.11
30516;BME280;17297;54.022;10.760;2023-01-29T06:16:25;102262.88;;;7.12;70.06
30516;BME280;17297;54.022;10.760;2023-01-29T06:18:51;102254.88;;;7.12;70.04
30516;BME280;17297;54.022;10.760;2023-01-29T06:21:16;102257.53;;;7.12;70.05
30516;BME280;17297;54.022;10.760;2023-01-29T06:23:41;102244.16;;;7.12;70.13
30516;BME280;17297;54.022;10.760;2023-01-29T06:26:11;102231.78;;;7.11;70.31
30516;BME280;17297;54.022;10.760;2023-01-29T06:28:37;102228.09;;;7.12;70.18
30516;BME280;17297;54.022;10.760;2023-01-29T06:31:06;102222.75;;;7.12;70.25
30516;BME280;17297;54.022;10.760;2023-01-29T06:33:31;102231.78;;;7.11;70.10
30516;BME280;17297;54.022;10.760;2023-01-29T06:35:57;102250.50;;;7.11;70.29
30516;BME280;17297;54.022;10.760;2023-01-29T06:38:24;102249.50;;;7.12;70.08
30516;BME280;17297;54.022;10.760;2023-01-29T06:40:50;102239.66;;;7.12;70.16
30516;BME280;17297;54.022;10.760;2023-01-29T06:43:15;102231.63;;;7.12;70.29
30516;BME280;17297;54.022;10.760;2023-01-29T06:45:54;102253.03;;;7.12;70.34
30516;BME280;17297;54.022;10.760;2023-01-29T06:48:21;102246.84;;;7.12;70.19
30516;BME280;17297;54.022;10.760;2023-01-29T06:50:46;102238.81;;;7.12;70.19
30516;BME280;17297;54.022;10.760;2023-01-29T06:53:14;102222.75;;;7.12;70.38
30516;BME280;17297;54.022;10.760;2023-01-29T06:55:41;102223.59;;;7.12;70.30
30516;BME280;17297;54.022;10.760;2023-01-29T06:58:10;102223.75;;;7.11;70.27
30516;BME280;17297;54.022;10.760;2023-01-29T07:00:37;102226.41;;;7.11;70.31
30516;BME280;17297;54.022;10.760;2023-01-29T07:03:03;102228.25;;;7.10;70.33
30516;BME280;17297;54.022;10.760;2023-01-29T07:05:30;102233.44;;;7.12;70.22
30516;BME280;17297;54.022;10.760;2023-01-29T07:07:55;102222.75;;;7.12;70.14
30516;BME280;17297;54.022;10.760;2023-01-29T07:10:21;102224.59;;;7.11;70.30
30516;BME280;17297;54.022;10.760;2023-01-29T07:12:46;102214.88;;;7.10;70.43
30516;BME280;17297;54.022;10.760;2023-01-29T07:15:12;102221.06;;;7.11;70.17
30516;BME280;17297;54.022;10.760;2023-01-29T07:17:38;102209.50;;;7.10;70.38
30516;BME280;17297;54.022;10.760;2023-01-29T07:20:04;102212.31;;;7.09;70.13
30516;BME280;17297;54.022;10.760;2023-01-29T07:22:31;102216.81;;;7.08;70.25
30516;BME280;17297;54.022;10.760;2023-01-29T07:24:57;102215.97;;;7.08;70.31
30516;BME280;17297;54.022;10.760;2023-01-29T07:27:22;102215.97;;;7.08;70.21
30516;BME280;17297;54.022;10.760;2023-01-29T07:29:47;102217.66;;;7.09;70.18
30516;BME280;17297;54.022;10.760;2023-01-29T07:32:13;102225.84;;;7.07;70.12
30516;BME280;17297;54.022;10.760;2023-01-29T07:34:38;102219.75;;;7.05;70.31
30516;BME280;17297;54.022;10.760;2023-01-29T07:37:03;102214.41;;;7.05;70.11
30516;BME280;17297;54.022;10.760;2023-01-29T07:39:30;102227.78;;;7.05;70.36
30516;BME280;17297;54.022;10.760;2023-01-29T07:41:56;102214.53;;;7.04;70.16
30516;BME280;17297;54.022;10.760;2023-01-29T07:44:21;102208.34;;;7.03;70.26
30516;BME280;17297;54.022;10.760;2023-01-29T07:46:47;102195.09;;;7.02;70.30
30516;BME280;17297;54.022;10.760;2023-01-29T07:49:12;102203.97;;;7.02;70.33
30516;BME280;17297;54.022;10.760;2023-01-29T07:51:38;102207.66;;;7.01;70.26
30516;BME280;17297;54.022;10.760;2023-01-29T07:54:03;102209.34;;;7.02;70.36
30516;BME280;17297;54.022;10.760;2023-01-29T07:56:28;102206.50;;;7.04;70.42
30516;BME280;17297;54.022;10.760;2023-01-29T07:58:54;102207.50;;;7.03;70.21
30516;BME280;17297;54.022;10.760;2023-01-29T08:01:20;102209.34;;;7.02;70.12
30516;BME280;17297;54.022;10.760;2023-01-29T08:03:45;102206.66;;;7.02;70.23
30516;BME280;17297;54.022;10.760;2023-01-29T08:06:11;102203.13;;;7.02;70.15
30516;BME280;17297;54.022;10.760;2023-01-29T08:08:38;102207.66;;;7.01;70.17
30516;BME280;17297;54.022;10.760;2023-01-29T08:11:04;102194.28;;;7.01;70.20
30516;BME280;17297;54.022;10.760;2023-01-29T08:13:30;102197.78;;;7.02;70.39
30516;BME280;17297;54.022;10.760;2023-01-29T08:16:00;102204.09;;;7.01;70.25
30516;BME280;17297;54.022;10.760;2023-01-29T08:18:26;102201.41;;;7.01;70.25
30516;BME280;17297;54.022;10.760;2023-01-29T08:20:51;102202.16;;;7.03;70.08
30516;BME280;17297;54.022;10.760;2023-01-29T08:23:17;102192.44;;;7.02;70.32
30516;BME280;17297;54.022;10.760;2023-01-29T08:25:42;102200.31;;;7.03;70.07
30516;BME280;17297;54.022;10.760;2023-01-29T08:28:08;102197.63;;;7.03;70.31
30516;BME280;17297;54.022;10.760;2023-01-29T08:30:34;102197.63;;;7.03;70.27
30516;BME280;17297;54.022;10.760;2023-01-29T08:33:00;102196.78;;;7.03;70.16
30516;BME280;17297;54.022;10.760;2023-01-29T08:35:28;102193.00;;;7.05;70.34
30516;BME280;17297;54.022;10.760;2023-01-29T08:37:58;102188.50;;;7.06;70.07
30516;BME280;17297;54.022;10.760;2023-01-29T08:40:25;102194.69;;;7.06;70.22
30516;BME280;17297;54.022;10.760;2023-01-29T08:42:50;102197.09;;;7.09;70.36
30516;BME280;17297;54.022;10.760;2023-01-29T08:45:16;102196.13;;;7.10;70.12
30516;BME280;17297;54.022;10.760;2023-01-29T08:47:48;102194.31;;;7.11;70.36
30516;BME280;17297;54.022;10.760;2023-01-29T08:50:15;102188.81;;;7.12;70.31
30516;BME280;17297;54.022;10.760;2023-01-29T08:52:42;102182.47;;;7.13;70.27
30516;BME280;17297;54.022;10.760;2023-01-29T08:55:07;102169.94;;;7.14;70.13
30516;BME280;17297;54.022;10.760;2023-01-29T08:57:33;102167.97;;;7.16;70.14
30516;BME280;17297;54.022;10.760;2023-01-29T08:59:58;102165.16;;;7.17;70.19
30516;BME280;17297;54.022;10.760;2023-01-29T09:02:23;102176.72;;;7.18;70.17
30516;BME280;17297;54.022;10.760;2023-01-29T09:04:49;102175.72;;;7.19;70.32
30516;BME280;17297;54.022;10.760;2023-01-29T09:07:14;102173.63;;;7.23;70.13
30516;BME280;17297;54.022;10.760;2023-01-29T09:09:40;102170.81;;;7.24;70.05
30516;BME280;17297;54.022;10.760;2023-01-29T09:12:05;102168.84;;;7.26;70.04
30516;BME280;17297;54.022;10.760;2023-01-29T09:14:30;102163.34;;;7.28;70.31
30516;BME280;17297;54.022;10.760;2023-01-29T09:16:57;102156.88;;;7.30;70.34
30516;BME280;17297;54.022;10.760;2023-01-29T09:19:22;102166.47;;;7.33;70.32
30516;BME280;17297;54.022;10.760;2023-01-29T09:21:48;102172.41;;;7.36;70.21
30516;BME280;17297;54.022;10.760;2023-01-29T09:24:14;102168.72;;;7.37;70.03
30516;BME280;17297;54.022;10.760;2023-01-29T09:26:39;102165.09;;;7.38;70.13
30516;BME280;17297;54.022;10.760;2023-01-29T09:29:05;102159.56;;;7.40;70.31
30516;BME280;17297;54.022;10.760;2023-01-29T09:31:30;102167.50;;;7.42;70.23
30516;BME280;17297;54.022;10.760;2023-01-29T09:33:55;102160.31;;;7.42;70.30
30516;BME280;17297;54.022;10.760;2023-01-29T09:36:21;102155.78;;;7.43;70.13
30516;BME280;17297;54.022;10.760;2023-01-29T09:38:46;102143.25;;;7.43;70.21
30516;BME280;17297;54.022;10.760;2023-01-29T09:44:10;102148.75;;;7.42;69.99
30516;BME280;17297;54.022;10.760;2023-01-29T09:46:42;102139.00;;;7.40;70.01
30516;BME280;17297;54.022;10.760;2023-01-29T09:52:26;102119.56;;;7.38;70.01
30516;BME280;17297;54.022;10.760;2023-01-29T09:55:09;102100.84;;;7.38;69.94
30516;BME280;17297;54.022;10.760;2023-01-29T09:57:43;102099.13;;;7.37;70.11
30516;BME280;17297;54.022;10.760;2023-01-29T10:00:22;102094.47;;;7.39;70.06
30516;BME280;17297;54.022;10.760;2023-01-29T10:05:42;102086.31;;;7.41;70.20
30516;BME280;17297;54.022;10.760;2023-01-29T10:09:01;102088.00;;;7.42;70.21
30516;BME280;17297;54.022;10.760;2023-01-29T10:11:53;102087.00;;;7.43;70.05
30516;BME280;17297;54.022;10.760;2023-01-29T10:14:55;102094.06;;;7.44;70.04
30516;BME280;17297;54.022;10.760;2023-01-29T10:17:41;102085.06;;;7.45;70.02
30516;BME280;17297;54.022;10.760;2023-01-29T10:20:34;102084.91;;;7.47;70.08
30516;BME280;17297;54.022;10.760;2023-01-29T10:25:39;102094.66;;;7.48;70.24
30516;BME280;17297;54.022;10.760;2023-01-29T10:28:15;102085.63;;;7.49;70.08
30516;BME280;17297;54.022;10.760;2023-01-29T10:30:47;102087.44;;;7.48;70.18
30516;BME280;17297;54.022;10.760;2023-01-29T10:33:21;102084.78;;;7.48;70.08
30516;BME280;17297;54.022;10.760;2023-01-29T10:35:52;102092.09;;;7.46;70.18
30516;BME280;17297;54.022;10.760;2023-01-29T10:38:30;102084.06;;;7.46;70.06
30516;BME280;17297;54.022;10.760;2023-01-29T10:43:53;102077.88;;;7.46;70.17
30516;BME280;17297;54.022;10.760;2023-01-29T10:46:32;102069.00;;;7.45;69.99
30516;BME280;17297;54.022;10.760;2023-01-29T10:57:00;102050.25;;;7.45;69.87
30516;BME280;17297;54.022;10.760;2023-01-29T10:59:43;102037.81;;;7.44;70.15
30516;BME280;17297;54.022;10.760;2023-01-29T11:02:15;102035.16;;;7.44;69.96
30516;BME280;17297;54.022;10.760;2023-01-29T11:04:42;102036.03;;;7.45;69.93
30516;BME280;17297;54.022;10.760;2023-01-29T11:07:07;102021.75;;;7.44;70.01
30516;BME280;17297;54.022;10.760;2023-01-29T11:09:38;102015.56;;;7.44;70.06
30516;BME280;17297;54.022;10.760;2023-01-29T11:12:12;102008.53;;;7.43;70.19
30516;BME280;17297;54.022;10.760;2023-01-29T11:17:16;101998.81;;;7.42;70.13
30516;BME280;17297;54.022;10.760;2023-01-29T11:19:44;101993.47;;;7.42;69.98
30516;BME280;17297;54.022;10.760;2023-01-29T11:22:19;101996.16;;;7.42;69.97
30516;BME280;17297;54.022;10.760;2023-01-29T11:24:46;101998.81;;;7.42;70.12
30516;BME280;17297;54.022;10.760;2023-01-29T11:27:32;101990.78;;;7.42;70.11
30516;BME280;17297;54.022;10.760;2023-01-29T11:29:59;101977.41;;;7.42;70.03
30516;BME280;17297;54.022;10.760;2023-01-29T11:32:27;101978.25;;;7.42;70.25
30516;BME280;17297;54.022;10.760;2023-01-29T11:35:18;101970.22;;;7.42;70.33
30516;BME280;17297;54.022;10.760;2023-01-29T11:37:45;101970.88;;;7.44;70.10
30516;BME280;17297;54.022;10.760;2023-01-29T11:42:42;101967.38;;;7.44;70.04
30516;BME280;17297;54.022;10.760;2023-01-29T11:47:52;101947.66;;;7.45;70.13
30516;BME280;17297;54.022;10.760;2023-01-29T11:50:25;101936.78;;;7.46;70.16
30516;BME280;17297;54.022;10.760;2023-01-29T11:52:51;101934.00;;;7.48;70.29
30516;BME280;17297;54.022;10.760;2023-01-29T11:55:22;101933.84;;;7.49;70.31
30516;BME280;17297;54.022;10.760;2023-01-29T11:58:02;101935.38;;;7.52;70.43
30516;BME280;17297;54.022;10.760;2023-01-29T12:00:30;101933.38;;;7.54;70.49
30516;BME280;17297;54.022;10.760;2023-01-29T12:03:11;101921.53;;;7.56;70.47
30516;BME280;17297;54.022;10.760;2023-01-29T12:05:51;101921.41;;;7.58;70.23
30516;BME280;17297;54.022;10.760;2023-01-29T12:08:17;101911.38;;;7.60;70.22
30516;BME280;17297;54.022;10.760;2023-01-29T12:10:43;101909.41;;;7.62;70.29
30516;BME280;17297;54.022;10.760;2023-01-29T12:15:37;101898.56;;;7.63;70.36
30516;BME280;17297;54.022;10.760;2023-01-29T12:23:53;101879.66;;;7.65;70.35
30516;BME280;17297;54.022;10.760;2023-01-29T12:26:27;101877.00;;;7.65;70.47
30516;BME280;17297;54.022;10.760;2023-01-29T12:29:11;101877.00;;;7.65;70.54
30516;BME280;17297;54.022;10.760;2023-01-29T12:31:49;101877.81;;;7.66;70.38
30516;BME280;17297;54.022;10.760;2023-01-29T12:37:11;101866.16;;;7.67;70.47
30516;BME280;17297;54.022;10.760;2023-01-29T12:39:38;101875.03;;;7.67;70.28
30516;BME280;17297;54.022;10.760;2023-01-29T12:42:12;101879.38;;;7.68;70.49
30516;BME280;17297;54.022;10.760;2023-01-29T12:44:46;101878.38;;;7.69;70.56
30516;BME280;17297;54.022;10.760;2023-01-29T12:47:35;101865.97;;;7.68;70.50
30516;BME280;17297;54.022;10.760;2023-01-29T12:50:13;101865.97;;;7.68;70.28
30516;BME280;17297;54.022;10.760;2023-01-29T12:52:45;101865.97;;;7.68;70.49
30516;BME280;17297;54.022;10.760;2023-01-29T12:58:02;101860.63;;;7.68;70.53
30516;BME280;17297;54.022;10.760;2023-01-29T13:00:39;101852.75;;;7.67;70.33
30516;BME280;17297;54.022;10.760;2023-01-29T13:05:52;101841.16;;;7.66;70.33
30516;BME280;17297;54.022;10.760;2023-01-29T13:08:38;101819.91;;;7.64;70.49
30516;BME280;17297;54.022;10.760;2023-01-29T13:11:13;101817.22;;;7.64;70.33
30516;BME280;17297;54.022;10.760;2023-01-29T13:13:49;101827.09;;;7.64;70.28
30516;BME280;17297;54.022;10.760;2023-01-29T13:16:19;101811.88;;;7.64;70.30
30516;BME280;17297;54.022;10.760;2023-01-29T13:18:58;101805.50;;;7.66;70.29
30516;BME280;17297;54.022;10.760;2023-01-29T13:21:28;101812.72;;;7.65;70.24
30516;BME280;17297;54.022;10.760;2023-01-29T13:23:57;101803.69;;;7.66;70.28
30516;BME280;17297;54.022;10.760;2023-01-29T13:26:24;101792.84;;;7.68;70.39
30516;BME280;17297;54.022;10.760;2023-01-29T13:28:51;101791.00;;;7.68;70.31
30516;BME280;17297;54.022;10.760;2023-01-29T13:34:06;101789.84;;;7.71;70.12
30516;BME280;17297;54.022;10.760;2023-01-29T13:36:35;101775.63;;;7.70;70.16
30516;BME280;17297;54.022;10.760;2023-01-29T13:39:06;101784.63;;;7.69;70.28
30516;BME280;17297;54.022;10.760;2023-01-29T13:41:38;101781.94;;;7.69;70.30
30516;BME280;17297;54.022;10.760;2023-01-29T13:44:16;101778.44;;;7.69;70.03
30516;BME280;17297;54.022;10.760;2023-01-29T13:46:51;101781.13;;;7.69;70.15
30516;BME280;17297;54.022;10.760;2023-01-29T13:49:22;101781.81;;;7.71;69.83
30516;BME280;17297;54.022;10.760;2023-01-29T13:51:48;101774.09;;;7.68;69.94
30516;BME280;17297;54.022;10.760;2023-01-29T13:54:17;101768.72;;;7.68;70.02
30516;BME280;17297;54.022;10.760;2023-01-29T13:56:56;101770.56;;;7.67;70.29
30516;BME280;17297;54.022;10.760;2023-01-29T13:59:50;101761.69;;;7.67;70.18
30516;BME280;17297;54.022;10.760;2023-01-29T14:02:21;101759.84;;;7.67;70.08
30516;BME280;17297;54.022;10.760;2023-01-29T14:04:47;101757.19;;;7.67;70.20
30516;BME280;17297;54.022;10.760;2023-01-29T14:08:05;101753.66;;;7.67;70.39
30516;BME280;17297;54.022;10.760;2023-01-29T14:10:28;101750.97;;;7.67;70.08
30516;BME280;17297;54.022;10.760;2023-01-29T14:18:26;101732.38;;;7.65;70.24
30516;BME280;17297;54.022;10.760;2023-01-29T14:20:56;101728.69;;;7.66;70.12
30516;BME280;17297;54.022;10.760;2023-01-29T14:25:54;101710.94;;;7.65;70.08
30516;BME280;17297;54.022;10.760;2023-01-29T14:28:23;101714.47;;;7.66;70.24
30516;BME280;17297;54.022;10.760;2023-01-29T14:30:50;101711.94;;;7.64;70.29
30516;BME280;17297;54.022;10.760;2023-01-29T14:33:37;101709.28;;;7.64;70.33
30516;BME280;17297;54.022;10.760;2023-01-29T14:36:05;101711.94;;;7.64;70.00
30516;BME280;17297;54.022;10.760;2023-01-29T14:38:33;101703.91;;;7.64;70.17
30516;BME280;17297;54.022;10.760;2023-01-29T14:41:13;101696.00;;;7.62;70.27
30516;BME280;17297;54.022;10.760;2023-01-29T14:43:41;101698.69;;;7.62;70.07